sensor_id;sensor_type;location;lat;lon;timestamp;P1;durP1;ratioP1;P2;durP2;ratioP2
22973;SDS011;11653;50.848;4.584;2023-05-29T00:00:34;16.73;;;6.53;;
22973;SDS011;11653;50.848;4.584;2023-05-29T00:02:59;16.00;;;6.53;;
22973;SDS011;11653;50.848;4.584;2023-05-29T00:05:26;15.43;;;6.53;;
22973;SDS011;11653;50.848;4.584;2023-05-29T00:07:52;13.93;;;6.70;;
22973;SDS011;11653;50.848;4.584;2023-05-29T00:10:18;14.23;;;6.37;;
22973;SDS011;11653;50.848;4.584;2023-05-29T00:12:43;13.40;;;5.83;;
22973;SDS011;11653;50.848;4.584;2023-05-29T00:15:09;16.83;;;7.20;;
22973;SDS011;11653;50.848;4.584;2023-05-29T00:17:35;17.30;;;6.23;;
22973;SDS011;11653;50.848;4.584;2023-05-29T00:20:02;12.67;;;6.43;;
22973;SDS011;11653;50.848;4.584;2023-05-29T00:22:37;13.23;;;6.47;;
22973;SDS011;11653;50.848;4.584;2023-05-29T00:25:06;15.57;;;6.50;;
22973;SDS011;11653;50.848;4.584;2023-05-29T00:27:32;19.70;;;6.70;;
22973;SDS011;11653;50.848;4.584;2023-05-29T00:29:59;12.80;;;6.77;;
22973;SDS011;11653;50.848;4.584;2023-05-29T00:32:26;13.07;;;6.70;;
22973;SDS011;11653;50.848;4.584;2023-05-29T00:34:52;11.60;;;6.77;;
22973;SDS011;11653;50.848;4.584;2023-05-29T00:37:18;11.07;;;6.03;;
22973;SDS011;11653;50.848;4.584;2023-05-29T00:39:46;14.63;;;6.90;;
22973;SDS011;11653;50.848;4.584;2023-05-29T00:42:14;14.50;;;7.40;;
22973;SDS011;11653;50.848;4.584;2023-05-29T00:44:40;11.77;;;7.20;;
22973;SDS011;11653;50.848;4.584;2023-05-29T00:47:06;17.03;;;7.07;;
22973;SDS011;11653;50.848;4.584;2023-05-29T00:49:32;13.93;;;7.60;;
22973;SDS011;11653;50.848;4.584;2023-05-29T00:52:00;14.37;;;7.20;;
22973;SDS011;11653;50.848;4.584;2023-05-29T00:54:28;15.57;;;8.23;;
22973;SDS011;11653;50.848;4.584;2023-05-29T00:56:55;16.50;;;7.33;;
22973;SDS011;11653;50.848;4.584;2023-05-29T00:59:28;16.37;;;7.07;;
22973;SDS011;11653;50.848;4.584;2023-05-29T01:01:56;15.00;;;6.83;;
22973;SDS011;11653;50.848;4.584;2023-05-29T01:04:23;14.40;;;7.00;;
22973;SDS011;11653;50.848;4.584;2023-05-29T01:06:51;17.17;;;8.30;;
22973;SDS011;11653;50.848;4.584;2023-05-29T01:09:17;15.73;;;7.30;;
22973;SDS011;11653;50.848;4.584;2023-05-29T01:20:24;17.90;;;7.13;;
22973;SDS011;11653;50.848;4.584;2023-05-29T01:28:32;16.23;;;7.80;;
22973;SDS011;11653;50.848;4.584;2023-05-29T01:31:04;16.73;;;8.47;;
22973;SDS011;11653;50.848;4.584;2023-05-29T01:33:30;18.47;;;8.33;;
22973;SDS011;11653;50.848;4.584;2023-05-29T01:35:56;16.20;;;8.17;;
22973;SDS011;11653;50.848;4.584;2023-05-29T01:38:21;16.47;;;8.30;;
22973;SDS011;11653;50.848;4.584;2023-05-29T01:40:47;15.83;;;8.17;;
22973;SDS011;11653;50.848;4.584;2023-05-29T01:43:13;15.67;;;8.30;;
22973;SDS011;11653;50.848;4.584;2023-05-29T01:45:40;18.97;;;8.10;;
22973;SDS011;11653;50.848;4.584;2023-05-29T01:48:06;17.07;;;8.63;;
22973;SDS011;11653;50.848;4.584;2023-05-29T01:50:32;16.70;;;9.07;;
22973;SDS011;11653;50.848;4.584;2023-05-29T01:52:58;16.57;;;8.07;;
22973;SDS011;11653;50.848;4.584;2023-05-29T01:55:24;15.87;;;7.70;;
22973;SDS011;11653;50.848;4.584;2023-05-29T01:57:50;16.87;;;7.90;;
22973;SDS011;11653;50.848;4.584;2023-05-29T02:00:17;16.80;;;8.03;;
22973;SDS011;11653;50.848;4.584;2023-05-29T02:02:44;14.97;;;8.37;;
22973;SDS011;11653;50.848;4.584;2023-05-29T02:05:09;17.10;;;8.20;;
22973;SDS011;11653;50.848;4.584;2023-05-29T02:07:35;15.57;;;8.60;;
22973;SDS011;11653;50.848;4.584;2023-05-29T02:10:04;22.57;;;8.27;;
22973;SDS011;11653;50.848;4.584;2023-05-29T02:12:30;17.23;;;7.70;;
22973;SDS011;11653;50.848;4.584;2023-05-29T02:14:56;25.83;;;8.67;;
22973;SDS011;11653;50.848;4.584;2023-05-29T02:17:22;18.80;;;8.87;;
22973;SDS011;11653;50.848;4.584;2023-05-29T02:19:48;21.63;;;8.90;;
22973;SDS011;11653;50.848;4.584;2023-05-29T02:22:13;19.37;;;7.97;;
22973;SDS011;11653;50.848;4.584;2023-05-29T02:24:39;18.30;;;8.83;;
22973;SDS011;11653;50.848;4.584;2023-05-29T02:27:05;18.80;;;8.37;;
22973;SDS011;11653;50.848;4.584;2023-05-29T02:29:31;20.33;;;8.00;;
22973;SDS011;11653;50.848;4.584;2023-05-29T02:31:57;12.30;;;7.80;;
22973;SDS011;11653;50.848;4.584;2023-05-29T02:34:22;19.27;;;8.33;;
22973;SDS011;11653;50.848;4.584;2023-05-29T02:36:49;16.23;;;7.30;;
22973;SDS011;11653;50.848;4.584;2023-05-29T02:39:17;17.43;;;8.23;;
22973;SDS011;11653;50.848;4.584;2023-05-29T02:41:42;15.63;;;8.17;;
22973;SDS011;11653;50.848;4.584;2023-05-29T02:44:08;17.83;;;7.37;;
22973;SDS011;11653;50.848;4.584;2023-05-29T02:46:34;21.07;;;8.03;;
22973;SDS011;11653;50.848;4.584;2023-05-29T02:49:00;19.03;;;7.13;;
22973;SDS011;11653;50.848;4.584;2023-05-29T02:51:25;14.63;;;7.00;;
22973;SDS011;11653;50.848;4.584;2023-05-29T02:53:52;17.33;;;6.73;;
22973;SDS011;11653;50.848;4.584;2023-05-29T02:56:18;18.87;;;7.23;;
22973;SDS011;11653;50.848;4.584;2023-05-29T02:58:48;11.93;;;5.73;;
22973;SDS011;11653;50.848;4.584;2023-05-29T03:01:17;16.00;;;6.13;;
22973;SDS011;11653;50.848;4.584;2023-05-29T03:03:42;16.53;;;6.13;;
22973;SDS011;11653;50.848;4.584;2023-05-29T03:06:08;12.50;;;5.40;;
22973;SDS011;11653;50.848;4.584;2023-05-29T03:08:35;20.97;;;5.93;;
22973;SDS011;11653;50.848;4.584;2023-05-29T03:11:04;16.50;;;5.60;;
22973;SDS011;11653;50.848;4.584;2023-05-29T03:13:32;18.37;;;5.17;;
22973;SDS011;11653;50.848;4.584;2023-05-29T03:15:59;15.60;;;5.80;;
22973;SDS011;11653;50.848;4.584;2023-05-29T03:18:25;19.17;;;6.27;;
22973;SDS011;11653;50.848;4.584;2023-05-29T03:20:50;12.70;;;5.50;;
22973;SDS011;11653;50.848;4.584;2023-05-29T03:23:16;22.47;;;6.63;;
22973;SDS011;11653;50.848;4.584;2023-05-29T03:25:42;18.63;;;5.33;;
22973;SDS011;11653;50.848;4.584;2023-05-29T03:28:07;17.40;;;6.63;;
22973;SDS011;11653;50.848;4.584;2023-05-29T03:30:33;18.80;;;5.40;;
22973;SDS011;11653;50.848;4.584;2023-05-29T03:32:59;12.27;;;5.10;;
22973;SDS011;11653;50.848;4.584;2023-05-29T03:35:28;17.40;;;5.37;;
22973;SDS011;11653;50.848;4.584;2023-05-29T03:37:54;13.93;;;5.30;;
22973;SDS011;11653;50.848;4.584;2023-05-29T03:40:20;16.20;;;5.13;;
22973;SDS011;11653;50.848;4.584;2023-05-29T03:42:46;17.90;;;4.70;;
22973;SDS011;11653;50.848;4.584;2023-05-29T03:45:11;16.07;;;4.97;;
22973;SDS011;11653;50.848;4.584;2023-05-29T03:47:37;17.50;;;4.77;;
22973;SDS011;11653;50.848;4.584;2023-05-29T03:50:03;15.70;;;4.40;;
22973;SDS011;11653;50.848;4.584;2023-05-29T03:52:29;19.97;;;4.83;;
22973;SDS011;11653;50.848;4.584;2023-05-29T03:54:54;15.07;;;5.00;;
22973;SDS011;11653;50.848;4.584;2023-05-29T03:57:20;14.90;;;5.00;;
22973;SDS011;11653;50.848;4.584;2023-05-29T03:59:46;17.67;;;4.93;;
22973;SDS011;11653;50.848;4.584;2023-05-29T04:02:11;12.83;;;4.20;;
22973;SDS011;11653;50.848;4.584;2023-05-29T04:04:37;18.77;;;5.23;;
22973;SDS011;11653;50.848;4.584;2023-05-29T04:07:04;11.80;;;4.10;;
22973;SDS011;11653;50.848;4.584;2023-05-29T04:09:31;10.90;;;3.97;;
22973;SDS011;11653;50.848;4.584;2023-05-29T04:11:57;16.37;;;4.70;;
22973;SDS011;11653;50.848;4.584;2023-05-29T04:14:24;17.97;;;4.67;;
22973;SDS011;11653;50.848;4.584;2023-05-29T04:16:50;13.10;;;4.40;;
22973;SDS011;11653;50.848;4.584;2023-05-29T04:19:15;14.53;;;3.83;;
22973;SDS011;11653;50.848;4.584;2023-05-29T04:21:41;12.63;;;3.97;;
22973;SDS011;11653;50.848;4.584;2023-05-29T04:24:07;13.97;;;3.80;;
22973;SDS011;11653;50.848;4.584;2023-05-29T04:26:33;17.93;;;4.37;;
22973;SDS011;11653;50.848;4.584;2023-05-29T04:28:58;18.57;;;3.80;;
22973;SDS011;11653;50.848;4.584;2023-05-29T04:31:25;9.43;;;3.77;;
22973;SDS011;11653;50.848;4.584;2023-05-29T04:33:51;15.60;;;5.23;;
22973;SDS011;11653;50.848;4.584;2023-05-29T04:36:23;10.03;;;3.40;;
22973;SDS011;11653;50.848;4.584;2023-05-29T04:38:52;14.63;;;3.67;;
22973;SDS011;11653;50.848;4.584;2023-05-29T04:41:19;20.07;;;4.33;;
22973;SDS011;11653;50.848;4.584;2023-05-29T04:43:48;12.70;;;3.23;;
22973;SDS011;11653;50.848;4.584;2023-05-29T04:46:16;15.77;;;3.20;;
22973;SDS011;11653;50.848;4.584;2023-05-29T04:48:42;13.17;;;3.37;;
22973;SDS011;11653;50.848;4.584;2023-05-29T04:51:08;11.43;;;3.60;;
22973;SDS011;11653;50.848;4.584;2023-05-29T04:53:37;13.10;;;3.67;;
22973;SDS011;11653;50.848;4.584;2023-05-29T04:56:05;11.83;;;3.00;;
22973;SDS011;11653;50.848;4.584;2023-05-29T04:58:30;14.57;;;3.10;;
22973;SDS011;11653;50.848;4.584;2023-05-29T05:00:56;14.67;;;3.27;;
22973;SDS011;11653;50.848;4.584;2023-05-29T05:03:23;9.97;;;3.20;;
22973;SDS011;11653;50.848;4.584;2023-05-29T05:05:50;15.27;;;3.70;;
22973;SDS011;11653;50.848;4.584;2023-05-29T05:08:16;15.43;;;3.10;;
22973;SDS011;11653;50.848;4.584;2023-05-29T05:10:42;11.47;;;3.23;;
22973;SDS011;11653;50.848;4.584;2023-05-29T05:13:08;11.70;;;3.60;;
22973;SDS011;11653;50.848;4.584;2023-05-29T05:15:36;15.70;;;3.00;;
22973;SDS011;11653;50.848;4.584;2023-05-29T05:18:01;14.80;;;3.40;;
22973;SDS011;11653;50.848;4.584;2023-05-29T05:20:27;15.13;;;2.93;;
22973;SDS011;11653;50.848;4.584;2023-05-29T05:22:52;10.40;;;2.93;;
22973;SDS011;11653;50.848;4.584;2023-05-29T05:25:18;15.20;;;3.47;;
22973;SDS011;11653;50.848;4.584;2023-05-29T05:27:44;9.40;;;2.67;;
22973;SDS011;11653;50.848;4.584;2023-05-29T05:30:10;15.30;;;3.10;;
22973;SDS011;11653;50.848;4.584;2023-05-29T05:32:36;12.80;;;3.30;;
22973;SDS011;11653;50.848;4.584;2023-05-29T05:35:01;11.20;;;2.63;;
22973;SDS011;11653;50.848;4.584;2023-05-29T05:37:28;12.50;;;3.20;;
22973;SDS011;11653;50.848;4.584;2023-05-29T05:39:54;12.17;;;2.73;;
22973;SDS011;11653;50.848;4.584;2023-05-29T05:42:19;11.67;;;3.77;;
22973;SDS011;11653;50.848;4.584;2023-05-29T05:44:45;12.70;;;3.67;;
22973;SDS011;11653;50.848;4.584;2023-05-29T05:47:11;13.00;;;3.50;;
22973;SDS011;11653;50.848;4.584;2023-05-29T05:49:37;10.30;;;3.10;;
22973;SDS011;11653;50.848;4.584;2023-05-29T05:52:03;9.77;;;2.77;;
22973;SDS011;11653;50.848;4.584;2023-05-29T05:54:28;14.13;;;3.00;;
22973;SDS011;11653;50.848;4.584;2023-05-29T05:56:54;8.80;;;3.20;;
22973;SDS011;11653;50.848;4.584;2023-05-29T05:59:20;10.87;;;2.33;;
22973;SDS011;11653;50.848;4.584;2023-05-29T06:01:45;12.47;;;3.43;;
22973;SDS011;11653;50.848;4.584;2023-05-29T06:04:11;12.87;;;3.40;;
22973;SDS011;11653;50.848;4.584;2023-05-29T06:06:37;14.03;;;3.13;;
22973;SDS011;11653;50.848;4.584;2023-05-29T06:09:02;10.10;;;3.27;;
22973;SDS011;11653;50.848;4.584;2023-05-29T06:11:29;12.47;;;3.20;;
22973;SDS011;11653;50.848;4.584;2023-05-29T06:13:56;9.33;;;2.97;;
22973;SDS011;11653;50.848;4.584;2023-05-29T06:16:22;14.17;;;3.73;;
22973;SDS011;11653;50.848;4.584;2023-05-29T06:18:48;11.03;;;2.83;;
22973;SDS011;11653;50.848;4.584;2023-05-29T06:21:14;13.63;;;3.00;;
22973;SDS011;11653;50.848;4.584;2023-05-29T06:23:39;13.30;;;3.00;;
22973;SDS011;11653;50.848;4.584;2023-05-29T06:26:06;11.23;;;2.90;;
22973;SDS011;11653;50.848;4.584;2023-05-29T06:28:32;16.50;;;3.90;;
22973;SDS011;11653;50.848;4.584;2023-05-29T06:30:58;14.40;;;2.87;;
22973;SDS011;11653;50.848;4.584;2023-05-29T06:33:23;13.87;;;3.10;;
22973;SDS011;11653;50.848;4.584;2023-05-29T06:35:49;10.87;;;3.00;;
22973;SDS011;11653;50.848;4.584;2023-05-29T06:38:15;11.70;;;3.20;;
22973;SDS011;11653;50.848;4.584;2023-05-29T06:40:41;6.97;;;2.33;;
22973;SDS011;11653;50.848;4.584;2023-05-29T06:43:06;16.03;;;3.67;;
22973;SDS011;11653;50.848;4.584;2023-05-29T06:45:34;9.77;;;2.63;;
22973;SDS011;11653;50.848;4.584;2023-05-29T06:48:00;10.83;;;3.03;;
22973;SDS011;11653;50.848;4.584;2023-05-29T06:50:25;15.70;;;4.20;;
22973;SDS011;11653;50.848;4.584;2023-05-29T06:52:51;14.33;;;3.40;;
22973;SDS011;11653;50.848;4.584;2023-05-29T06:55:17;14.60;;;3.30;;
22973;SDS011;11653;50.848;4.584;2023-05-29T06:57:42;9.90;;;2.60;;
22973;SDS011;11653;50.848;4.584;2023-05-29T07:00:08;10.60;;;2.83;;
22973;SDS011;11653;50.848;4.584;2023-05-29T07:02:36;13.50;;;3.23;;
22973;SDS011;11653;50.848;4.584;2023-05-29T07:05:02;12.13;;;3.10;;
22973;SDS011;11653;50.848;4.584;2023-05-29T07:07:28;14.73;;;3.47;;
22973;SDS011;11653;50.848;4.584;2023-05-29T07:09:54;10.63;;;2.80;;
22973;SDS011;11653;50.848;4.584;2023-05-29T07:12:21;13.10;;;2.83;;
22973;SDS011;11653;50.848;4.584;2023-05-29T07:14:47;11.80;;;2.70;;
22973;SDS011;11653;50.848;4.584;2023-05-29T07:17:13;11.07;;;2.90;;
22973;SDS011;11653;50.848;4.584;2023-05-29T07:19:39;9.57;;;2.87;;
22973;SDS011;11653;50.848;4.584;2023-05-29T07:22:05;14.87;;;3.67;;
22973;SDS011;11653;50.848;4.584;2023-05-29T07:24:31;12.20;;;3.00;;
22973;SDS011;11653;50.848;4.584;2023-05-29T07:26:56;5.40;;;2.43;;
22973;SDS011;11653;50.848;4.584;2023-05-29T07:29:22;9.57;;;2.30;;
22973;SDS011;11653;50.848;4.584;2023-05-29T07:31:48;14.37;;;3.00;;
22973;SDS011;11653;50.848;4.584;2023-05-29T07:34:14;12.37;;;2.77;;
22973;SDS011;11653;50.848;4.584;2023-05-29T07:39:25;13.30;;;3.20;;
22973;SDS011;11653;50.848;4.584;2023-05-29T07:41:51;11.23;;;2.67;;
22973;SDS011;11653;50.848;4.584;2023-05-29T07:44:17;11.37;;;3.27;;
22973;SDS011;11653;50.848;4.584;2023-05-29T07:46:43;13.13;;;3.03;;
22973;SDS011;11653;50.848;4.584;2023-05-29T07:49:08;12.60;;;2.63;;
22973;SDS011;11653;50.848;4.584;2023-05-29T07:51:34;9.80;;;2.80;;
22973;SDS011;11653;50.848;4.584;2023-05-29T07:54:00;7.47;;;2.43;;
22973;SDS011;11653;50.848;4.584;2023-05-29T07:56:26;13.17;;;2.67;;
22973;SDS011;11653;50.848;4.584;2023-05-29T07:58:51;16.00;;;2.77;;
22973;SDS011;11653;50.848;4.584;2023-05-29T08:01:19;13.07;;;2.67;;
22973;SDS011;11653;50.848;4.584;2023-05-29T08:03:46;12.67;;;3.07;;
22973;SDS011;11653;50.848;4.584;2023-05-29T08:06:12;11.47;;;2.90;;
22973;SDS011;11653;50.848;4.584;2023-05-29T08:08:39;14.77;;;2.90;;
22973;SDS011;11653;50.848;4.584;2023-05-29T08:11:04;11.17;;;2.30;;
22973;SDS011;11653;50.848;4.584;2023-05-29T08:13:30;8.17;;;2.90;;
22973;SDS011;11653;50.848;4.584;2023-05-29T08:15:56;8.87;;;2.70;;
22973;SDS011;11653;50.848;4.584;2023-05-29T08:18:25;10.00;;;2.87;;
22973;SDS011;11653;50.848;4.584;2023-05-29T08:20:51;11.57;;;2.73;;
22973;SDS011;11653;50.848;4.584;2023-05-29T08:23:17;9.30;;;2.80;;
22973;SDS011;11653;50.848;4.584;2023-05-29T08:25:44;14.47;;;3.23;;
22973;SDS011;11653;50.848;4.584;2023-05-29T08:28:10;12.93;;;3.00;;
22973;SDS011;11653;50.848;4.584;2023-05-29T08:30:35;10.23;;;2.80;;
22973;SDS011;11653;50.848;4.584;2023-05-29T08:33:02;11.07;;;2.77;;
22973;SDS011;11653;50.848;4.584;2023-05-29T08:35:28;8.67;;;2.93;;
22973;SDS011;11653;50.848;4.584;2023-05-29T08:37:54;9.37;;;3.07;;
22973;SDS011;11653;50.848;4.584;2023-05-29T08:40:20;13.23;;;3.27;;
22973;SDS011;11653;50.848;4.584;2023-05-29T08:42:59;8.17;;;2.93;;
22973;SDS011;11653;50.848;4.584;2023-05-29T08:45:32;10.97;;;3.37;;
22973;SDS011;11653;50.848;4.584;2023-05-29T08:48:00;10.90;;;3.10;;
22973;SDS011;11653;50.848;4.584;2023-05-29T08:50:27;8.87;;;2.83;;
22973;SDS011;11653;50.848;4.584;2023-05-29T08:52:53;9.03;;;2.60;;
22973;SDS011;11653;50.848;4.584;2023-05-29T08:55:18;12.07;;;2.90;;
22973;SDS011;11653;50.848;4.584;2023-05-29T08:57:44;13.30;;;2.85;;
22973;SDS011;11653;50.848;4.584;2023-05-29T09:00:13;10.13;;;3.13;;
22973;SDS011;11653;50.848;4.584;2023-05-29T09:02:43;13.43;;;3.13;;
22973;SDS011;11653;50.848;4.584;2023-05-29T09:05:09;9.95;;;2.80;;
22973;SDS011;11653;50.848;4.584;2023-05-29T09:07:35;13.88;;;3.65;;
22973;SDS011;11653;50.848;4.584;2023-05-29T09:10:06;10.55;;;2.95;;
22973;SDS011;11653;50.848;4.584;2023-05-29T09:12:33;13.07;;;3.08;;
22973;SDS011;11653;50.848;4.584;2023-05-29T09:14:59;15.07;;;3.90;;
22973;SDS011;11653;50.848;4.584;2023-05-29T09:17:30;7.57;;;2.90;;
22973;SDS011;11653;50.848;4.584;2023-05-29T09:19:57;14.27;;;3.38;;
22973;SDS011;11653;50.848;4.584;2023-05-29T09:22:23;12.90;;;3.25;;
22973;SDS011;11653;50.848;4.584;2023-05-29T09:24:49;13.63;;;3.30;;
22973;SDS011;11653;50.848;4.584;2023-05-29T09:27:16;11.75;;;3.13;;
22973;SDS011;11653;50.848;4.584;2023-05-29T09:29:43;12.32;;;3.30;;
22973;SDS011;11653;50.848;4.584;2023-05-29T09:32:10;13.68;;;3.03;;
22973;SDS011;11653;50.848;4.584;2023-05-29T09:34:37;11.93;;;2.20;;
22973;SDS011;11653;50.848;4.584;2023-05-29T09:37:08;12.18;;;3.40;;
22973;SDS011;11653;50.848;4.584;2023-05-29T09:39:41;16.45;;;3.40;;
22973;SDS011;11653;50.848;4.584;2023-05-29T09:42:10;16.65;;;3.95;;
22973;SDS011;11653;50.848;4.584;2023-05-29T09:44:36;14.60;;;3.03;;
22973;SDS011;11653;50.848;4.584;2023-05-29T09:47:02;12.57;;;3.17;;
22973;SDS011;11653;50.848;4.584;2023-05-29T09:49:29;12.10;;;3.00;;
22973;SDS011;11653;50.848;4.584;2023-05-29T09:51:57;17.85;;;3.55;;
22973;SDS011;11653;50.848;4.584;2023-05-29T09:54:26;11.52;;;3.13;;
22973;SDS011;11653;50.848;4.584;2023-05-29T09:56:56;18.88;;;3.38;;
22973;SDS011;11653;50.848;4.584;2023-05-29T09:59:23;11.90;;;2.83;;
22973;SDS011;11653;50.848;4.584;2023-05-29T10:02:02;9.80;;;3.63;;
22973;SDS011;11653;50.848;4.584;2023-05-29T10:04:30;14.90;;;3.78;;
22973;SDS011;11653;50.848;4.584;2023-05-29T10:06:57;11.10;;;3.13;;
22973;SDS011;11653;50.848;4.584;2023-05-29T10:09:27;12.45;;;3.03;;
22973;SDS011;11653;50.848;4.584;2023-05-29T10:11:53;9.45;;;2.58;;
22973;SDS011;11653;50.848;4.584;2023-05-29T10:14:23;11.68;;;2.75;;
22973;SDS011;11653;50.848;4.584;2023-05-29T10:16:50;14.05;;;3.28;;
22973;SDS011;11653;50.848;4.584;2023-05-29T10:19:19;11.43;;;2.83;;
22973;SDS011;11653;50.848;4.584;2023-05-29T10:21:50;11.10;;;3.00;;
22973;SDS011;11653;50.848;4.584;2023-05-29T10:24:18;10.88;;;2.83;;
22973;SDS011;11653;50.848;4.584;2023-05-29T10:26:47;13.13;;;3.30;;
22973;SDS011;11653;50.848;4.584;2023-05-29T10:29:18;14.90;;;2.85;;
22973;SDS011;11653;50.848;4.584;2023-05-29T10:37:40;11.93;;;3.08;;
22973;SDS011;11653;50.848;4.584;2023-05-29T10:40:11;16.67;;;3.17;;
22973;SDS011;11653;50.848;4.584;2023-05-29T10:42:47;10.00;;;2.60;;
22973;SDS011;11653;50.848;4.584;2023-05-29T10:47:55;12.13;;;2.58;;
22973;SDS011;11653;50.848;4.584;2023-05-29T10:50:47;8.63;;;2.63;;
22973;SDS011;11653;50.848;4.584;2023-05-29T10:53:16;15.00;;;3.30;;
22973;SDS011;11653;50.848;4.584;2023-05-29T10:55:44;10.77;;;2.55;;
22973;SDS011;11653;50.848;4.584;2023-05-29T10:58:12;12.38;;;2.80;;
22973;SDS011;11653;50.848;4.584;2023-05-29T11:00:43;8.98;;;2.42;;
22973;SDS011;11653;50.848;4.584;2023-05-29T11:03:21;9.93;;;3.10;;
22973;SDS011;11653;50.848;4.584;2023-05-29T11:06:01;9.07;;;2.58;;
22973;SDS011;11653;50.848;4.584;2023-05-29T11:08:46;12.35;;;3.20;;
22973;SDS011;11653;50.848;4.584;2023-05-29T11:14:02;11.80;;;2.90;;
22973;SDS011;11653;50.848;4.584;2023-05-29T11:18:56;11.60;;;2.92;;
22973;SDS011;11653;50.848;4.584;2023-05-29T11:24:06;8.55;;;2.70;;
22973;SDS011;11653;50.848;4.584;2023-05-29T11:26:32;8.93;;;2.60;;
22973;SDS011;11653;50.848;4.584;2023-05-29T11:29:00;10.77;;;2.65;;
22973;SDS011;11653;50.848;4.584;2023-05-29T11:31:29;11.40;;;3.25;;
22973;SDS011;11653;50.848;4.584;2023-05-29T11:34:01;13.35;;;2.58;;
22973;SDS011;11653;50.848;4.584;2023-05-29T11:36:31;9.30;;;3.17;;
22973;SDS011;11653;50.848;4.584;2023-05-29T11:38:57;11.13;;;2.50;;
22973;SDS011;11653;50.848;4.584;2023-05-29T11:41:23;10.90;;;2.72;;
22973;SDS011;11653;50.848;4.584;2023-05-29T11:44:00;6.40;;;2.47;;
22973;SDS011;11653;50.848;4.584;2023-05-29T11:46:33;10.00;;;2.53;;
22973;SDS011;11653;50.848;4.584;2023-05-29T11:48:59;11.63;;;3.13;;
22973;SDS011;11653;50.848;4.584;2023-05-29T11:51:26;11.48;;;3.13;;
22973;SDS011;11653;50.848;4.584;2023-05-29T11:53:52;11.60;;;2.67;;
22973;SDS011;11653;50.848;4.584;2023-05-29T11:56:23;9.73;;;2.50;;
22973;SDS011;11653;50.848;4.584;2023-05-29T11:58:50;7.95;;;2.42;;
22973;SDS011;11653;50.848;4.584;2023-05-29T12:01:20;10.80;;;2.42;;
22973;SDS011;11653;50.848;4.584;2023-05-29T12:03:46;10.82;;;2.85;;
22973;SDS011;11653;50.848;4.584;2023-05-29T12:06:11;9.63;;;2.97;;
22973;SDS011;11653;50.848;4.584;2023-05-29T12:08:37;10.77;;;3.13;;
22973;SDS011;11653;50.848;4.584;2023-05-29T12:11:04;10.10;;;3.33;;
22973;SDS011;11653;50.848;4.584;2023-05-29T12:13:30;9.48;;;2.40;;
22973;SDS011;11653;50.848;4.584;2023-05-29T12:15:57;21.58;;;3.55;;
22973;SDS011;11653;50.848;4.584;2023-05-29T12:18:25;8.50;;;2.80;;
22973;SDS011;11653;50.848;4.584;2023-05-29T12:20:56;9.83;;;2.30;;
22973;SDS011;11653;50.848;4.584;2023-05-29T12:23:23;7.68;;;2.22;;
22973;SDS011;11653;50.848;4.584;2023-05-29T12:25:50;9.30;;;4.82;;
22973;SDS011;11653;50.848;4.584;2023-05-29T12:28:18;10.43;;;2.57;;
22973;SDS011;11653;50.848;4.584;2023-05-29T12:30:46;12.23;;;2.73;;
22973;SDS011;11653;50.848;4.584;2023-05-29T12:33:24;10.63;;;2.47;;
22973;SDS011;11653;50.848;4.584;2023-05-29T12:36:00;10.47;;;3.00;;
22973;SDS011;11653;50.848;4.584;2023-05-29T12:38:27;6.37;;;2.43;;
22973;SDS011;11653;50.848;4.584;2023-05-29T12:40:52;11.50;;;2.80;;
22973;SDS011;11653;50.848;4.584;2023-05-29T12:43:18;8.03;;;2.60;;
22973;SDS011;11653;50.848;4.584;2023-05-29T12:45:44;8.37;;;3.07;;
22973;SDS011;11653;50.848;4.584;2023-05-29T12:48:10;12.17;;;3.00;;
22973;SDS011;11653;50.848;4.584;2023-05-29T12:50:39;9.47;;;2.63;;
22973;SDS011;11653;50.848;4.584;2023-05-29T12:53:09;8.00;;;2.30;;
22973;SDS011;11653;50.848;4.584;2023-05-29T12:55:39;12.53;;;2.93;;
22973;SDS011;11653;50.848;4.584;2023-05-29T12:58:11;10.10;;;2.53;;
22973;SDS011;11653;50.848;4.584;2023-05-29T13:00:39;8.43;;;2.27;;
22973;SDS011;11653;50.848;4.584;2023-05-29T13:03:05;11.27;;;2.20;;
22973;SDS011;11653;50.848;4.584;2023-05-29T13:05:31;4.17;;;2.13;;
22973;SDS011;11653;50.848;4.584;2023-05-29T13:07:57;10.23;;;2.33;;
22973;SDS011;11653;50.848;4.584;2023-05-29T13:10:24;9.57;;;2.73;;
22973;SDS011;11653;50.848;4.584;2023-05-29T13:12:51;6.87;;;2.30;;
22973;SDS011;11653;50.848;4.584;2023-05-29T13:15:20;12.20;;;2.53;;
22973;SDS011;11653;50.848;4.584;2023-05-29T13:17:46;7.73;;;2.50;;
22973;SDS011;11653;50.848;4.584;2023-05-29T13:20:12;8.90;;;2.80;;
22973;SDS011;11653;50.848;4.584;2023-05-29T13:22:38;5.87;;;2.53;;
22973;SDS011;11653;50.848;4.584;2023-05-29T13:25:06;11.17;;;2.80;;
22973;SDS011;11653;50.848;4.584;2023-05-29T13:27:34;7.77;;;2.37;;
22973;SDS011;11653;50.848;4.584;2023-05-29T13:30:01;11.37;;;2.90;;
22973;SDS011;11653;50.848;4.584;2023-05-29T13:32:28;9.13;;;2.40;;
22973;SDS011;11653;50.848;4.584;2023-05-29T13:34:54;9.73;;;2.97;;
22973;SDS011;11653;50.848;4.584;2023-05-29T13:37:20;12.77;;;2.50;;
22973;SDS011;11653;50.848;4.584;2023-05-29T13:39:46;9.90;;;3.03;;
22973;SDS011;11653;50.848;4.584;2023-05-29T13:42:12;6.80;;;2.77;;
22973;SDS011;11653;50.848;4.584;2023-05-29T13:44:38;10.30;;;2.60;;
22973;SDS011;11653;50.848;4.584;2023-05-29T13:47:07;7.50;;;2.70;;
22973;SDS011;11653;50.848;4.584;2023-05-29T13:49:36;8.97;;;2.97;;
22973;SDS011;11653;50.848;4.584;2023-05-29T13:52:02;7.47;;;2.50;;
22973;SDS011;11653;50.848;4.584;2023-05-29T13:54:28;13.73;;;3.60;;
22973;SDS011;11653;50.848;4.584;2023-05-29T13:57:04;7.50;;;2.53;;
22973;SDS011;11653;50.848;4.584;2023-05-29T13:59:34;7.90;;;2.77;;
22973;SDS011;11653;50.848;4.584;2023-05-29T14:02:00;6.00;;;2.13;;
22973;SDS011;11653;50.848;4.584;2023-05-29T14:04:28;11.23;;;3.20;;
22973;SDS011;11653;50.848;4.584;2023-05-29T14:06:57;13.40;;;3.20;;
22973;SDS011;11653;50.848;4.584;2023-05-29T14:09:23;12.80;;;2.97;;
22973;SDS011;11653;50.848;4.584;2023-05-29T14:11:56;9.33;;;2.83;;
22973;SDS011;11653;50.848;4.584;2023-05-29T14:14:25;6.87;;;2.73;;
22973;SDS011;11653;50.848;4.584;2023-05-29T14:16:51;10.03;;;2.83;;
22973;SDS011;11653;50.848;4.584;2023-05-29T14:19:18;8.33;;;2.30;;
22973;SDS011;11653;50.848;4.584;2023-05-29T14:21:44;10.17;;;2.80;;
22973;SDS011;11653;50.848;4.584;2023-05-29T14:24:10;9.53;;;2.60;;
22973;SDS011;11653;50.848;4.584;2023-05-29T14:26:36;17.17;;;3.00;;
22973;SDS011;11653;50.848;4.584;2023-05-29T14:29:02;10.13;;;2.67;;
22973;SDS011;11653;50.848;4.584;2023-05-29T14:31:28;9.73;;;2.20;;
22973;SDS011;11653;50.848;4.584;2023-05-29T14:33:54;9.70;;;2.60;;
22973;SDS011;11653;50.848;4.584;2023-05-29T14:36:20;7.73;;;2.27;;
22973;SDS011;11653;50.848;4.584;2023-05-29T14:38:45;9.37;;;3.13;;
22973;SDS011;11653;50.848;4.584;2023-05-29T14:41:12;8.20;;;3.37;;
22973;SDS011;11653;50.848;4.584;2023-05-29T14:43:38;11.13;;;2.83;;
22973;SDS011;11653;50.848;4.584;2023-05-29T14:46:06;7.83;;;2.60;;
22973;SDS011;11653;50.848;4.584;2023-05-29T14:48:32;13.47;;;3.20;;
22973;SDS011;11653;50.848;4.584;2023-05-29T14:50:57;6.43;;;2.70;;
22973;SDS011;11653;50.848;4.584;2023-05-29T14:53:23;7.83;;;2.67;;
22973;SDS011;11653;50.848;4.584;2023-05-29T14:55:49;9.67;;;2.87;;
22973;SDS011;11653;50.848;4.584;2023-05-29T14:58:15;10.47;;;2.70;;
22973;SDS011;11653;50.848;4.584;2023-05-29T15:00:40;9.37;;;2.53;;
22973;SDS011;11653;50.848;4.584;2023-05-29T15:03:06;8.97;;;2.70;;
22973;SDS011;11653;50.848;4.584;2023-05-29T15:05:32;11.27;;;2.60;;
22973;SDS011;11653;50.848;4.584;2023-05-29T15:07:57;11.90;;;2.80;;
22973;SDS011;11653;50.848;4.584;2023-05-29T15:10:25;10.93;;;2.40;;